Terminal Aerodrome Forecast
Issued by NWS

Home | Current Version | Previous Version | Text Only | Print | Product List | Glossary Off
Versions: 1 2 3 4 5 6 7 8 9 10 11 12 13 14 15 16

000
FTUS42 KMHX 131134
TAFPGV
TAF
KPGV 131134Z 1312/1412 25005KT P6SM SCT250
     FM132000 36006KT P6SM BKN020
     FM132300 05010KT P6SM BKN020
     FM140500 05010KT P6SM BKN045
      AMD LTD TO CLD VIS AND WIND=

USA.gov is the U.S. government's official web portal to all federal, state and local government web resources and services.